Time;durP1;ratioP1;P1;durP2;ratioP2;P2;SDS_P1;SDS_P2;PMS_P1;PMS_P2;Temp;Humidity;BMP_temperature;BMP_pressure;BME280_temperature;BME280_humidity;BME280_pressure;Samples;Min_cycle;Max_cycle;Signal;HPM_P1;HPM_P2
2021/12/09 00:00:28;;;;;;;;;5.20;3.40;;;;;5.44;76.82;98520.97;5048687;28;8858;-79
2021/12/09 00:02:57;;;;;;;;;1.80;1.00;;;;;5.43;76.88;98514.84;5049422;28;8854;-80
2021/12/09 00:05:25;;;;;;;;;5.60;5.60;;;;;5.45;77.08;98517.34;5048960;28;9008;-80
2021/12/09 00:07:53;;;;;;;;;1.40;1.40;;;;;5.45;76.71;98509.44;5047665;28;8870;-80
2021/12/09 00:10:21;;;;;;;;;3.00;3.00;;;;;5.45;76.63;98512.06;5046364;28;9224;-80
2021/12/09 00:12:49;;;;;;;;;3.60;3.20;;;;;5.44;77.01;98513.03;5049723;28;8860;-79
2021/12/09 00:15:17;;;;;;;;;5.20;3.60;;;;;5.44;76.58;98507.75;5049801;28;8843;-80
2021/12/09 00:17:45;;;;;;;;;6.00;4.00;;;;;5.43;77.06;98506.94;5050460;28;9485;-80
2021/12/09 00:20:13;;;;;;;;;1.00;1.00;;;;;5.41;76.95;98503.56;5051978;28;9312;-80
2021/12/09 00:22:41;;;;;;;;;2.20;2.20;;;;;5.41;76.97;98510.66;5053225;28;8861;-80
2021/12/09 00:25:09;;;;;;;;;1.40;1.00;;;;;5.40;76.95;98511.63;5051823;28;8872;-80
2021/12/09 00:27:36;;;;;;;;;1.80;1.80;;;;;5.39;77.05;98505.50;5049061;28;8842;-80
2021/12/09 00:30:04;;;;;;;;;1.00;1.00;;;;;5.39;77.24;98509.97;5048630;28;8864;-81
2021/12/09 00:32:32;;;;;;;;;3.00;3.00;;;;;5.37;77.03;98502.16;5048865;28;8866;-80
2021/12/09 00:34:59;;;;;;;;;1.80;1.40;;;;;5.32;77.04;98504.31;5049290;28;8830;-80
2021/12/09 00:37:33;;;;;;;;;1.80;1.80;;;;;5.31;77.24;98509.75;5048208;28;8835;-80
2021/12/09 00:40:01;;;;;;;;;3.00;2.20;;;;;5.26;77.34;98504.81;5048656;28;8842;-80
2021/12/09 00:42:29;;;;;;;;;0.00;0.00;;;;;5.19;77.12;98508.09;5048336;28;9148;-80
2021/12/09 00:44:56;;;;;;;;;3.00;3.00;;;;;5.14;77.58;98515.53;5047702;28;8963;-80
2021/12/09 00:47:25;;;;;;;;;1.40;1.40;;;;;5.07;77.41;98509.06;5047043;28;9108;-80
2021/12/09 00:49:55;;;;;;;;;1.00;1.00;;;;;5.02;77.40;98512.06;5048316;28;9899;-80
2021/12/09 00:52:24;;;;;;;;;3.60;3.00;;;;;5.00;78.02;98514.00;5049277;28;9532;-80
2021/12/09 00:54:52;;;;;;;;;4.00;3.40;;;;;4.97;77.97;98516.91;5048523;28;8838;-80
2021/12/09 00:57:20;;;;;;;;;3.00;3.00;;;;;4.97;77.35;98531.88;5049453;28;8847;-80
2021/12/09 00:59:48;;;;;;;;;3.60;3.00;;;;;4.97;77.83;98529.22;5047203;28;8860;-80
2021/12/09 01:02:16;;;;;;;;;1.00;0.60;;;;;4.98;77.60;98530.91;5048322;28;8854;-80
2021/12/09 01:04:44;;;;;;;;;3.00;3.00;;;;;5.02;77.17;98527.09;5047290;28;8878;-79
2021/12/09 01:07:11;;;;;;;;;3.40;3.40;;;;;5.04;77.56;98531.28;5047432;28;8854;-80
2021/12/09 01:09:39;;;;;;;;;2.80;2.80;;;;;5.08;77.53;98537.16;5045545;28;8973;-82
2021/12/09 01:12:08;;;;;;;;;3.00;3.00;;;;;5.09;77.44;98538.81;5048290;28;8865;-81
2021/12/09 01:14:37;;;;;;;;;2.60;1.00;;;;;5.09;76.99;98539.63;5049467;28;8971;-82
2021/12/09 01:17:04;;;;;;;;;4.00;3.00;;;;;5.09;77.24;98544.09;5049890;28;8854;-82
2021/12/09 01:19:32;;;;;;;;;1.00;1.00;;;;;5.09;77.29;98546.72;5049050;28;8850;-79
2021/12/09 01:22:00;;;;;;;;;1.00;1.00;;;;;5.09;77.04;98544.91;5049973;28;8846;-82
2021/12/09 01:24:32;;;;;;;;;1.00;1.00;;;;;5.08;77.47;98540.59;5048908;28;8862;-82
2021/12/09 01:27:00;;;;;;;;;3.20;3.20;;;;;5.07;77.08;98546.00;5048375;28;8847;-81
2021/12/09 01:29:34;;;;;;;;;1.00;1.00;;;;;5.06;76.84;98558.38;5048354;28;8854;-81
2021/12/09 01:32:05;;;;;;;;;1.40;1.40;;;;;5.06;77.13;98554.88;5049316;28;8865;-81
2021/12/09 01:34:32;;;;;;;;;1.80;1.00;;;;;5.06;77.31;98554.88;5049893;28;8858;-81
2021/12/09 01:37:00;;;;;;;;;1.00;1.00;;;;;5.05;77.57;98559.31;5049035;28;8835;-82
2021/12/09 01:39:30;;;;;;;;;2.60;2.60;;;;;5.06;77.41;98560.16;5047527;28;8839;-81
2021/12/09 01:41:58;;;;;;;;;1.00;1.00;;;;;5.06;77.05;98570.69;5048979;28;8846;-81
2021/12/09 01:44:25;;;;;;;;;0.40;0.00;;;;;5.06;77.13;98571.56;5049077;28;9478;-81
2021/12/09 01:46:53;;;;;;;;;1.00;1.00;;;;;5.07;77.08;98567.09;5049524;28;8981;-81
2021/12/09 01:49:21;;;;;;;;;1.00;1.00;;;;;5.08;77.13;98574.91;5048353;28;8865;-79
2021/12/09 01:51:49;;;;;;;;;1.80;1.80;;;;;5.10;77.03;98580.06;5048884;28;8831;-80
2021/12/09 01:54:17;;;;;;;;;2.00;1.60;;;;;5.11;77.35;98573.81;5050034;28;9504;-80
2021/12/09 01:56:44;;;;;;;;;2.20;0.60;;;;;5.11;77.42;98573.81;5048903;28;8871;-80
2021/12/09 01:59:13;;;;;;;;;1.00;0.20;;;;;5.13;77.47;98585.09;5048990;28;9561;-79
2021/12/09 02:01:41;;;;;;;;;2.20;2.20;;;;;5.13;77.03;98577.16;5049147;28;9696;-79
2021/12/09 02:04:09;;;;;;;;;3.00;3.00;;;;;5.14;77.41;98581.47;5048229;28;8854;-80
2021/12/09 02:06:40;;;;;;;;;1.00;1.00;;;;;5.15;77.44;98583.16;5048197;28;8862;-80
2021/12/09 02:09:08;;;;;;;;;2.20;2.20;;;;;5.15;77.10;98585.78;5047900;28;8919;-81
2021/12/09 02:11:36;;;;;;;;;0.60;0.60;;;;;5.15;77.13;98581.38;5050654;28;8889;-83
2021/12/09 02:14:03;;;;;;;;;2.60;1.80;;;;;5.14;77.11;98576.19;5051924;28;8874;-81
2021/12/09 02:16:31;;;;;;;;;0.20;0.20;;;;;5.13;76.94;98578.03;5052354;28;8858;-80
2021/12/09 02:18:59;;;;;;;;;4.00;3.00;;;;;5.15;77.09;98580.50;5052566;28;8830;-80
2021/12/09 02:21:27;;;;;;;;;3.00;1.00;;;;;5.14;77.54;98573.56;5052399;28;8835;-80
2021/12/09 02:23:54;;;;;;;;;1.00;1.00;;;;;5.14;77.24;98573.56;5050874;28;8846;-80
2021/12/09 02:26:22;;;;;;;;;3.80;3.20;;;;;5.12;77.51;98571.06;5052222;28;8859;-80
2021/12/09 02:28:50;;;;;;;;;1.00;1.00;;;;;5.12;77.67;98571.06;5051517;28;9657;-80
2021/12/09 02:31:18;;;;;;;;;2.20;2.20;;;;;5.10;77.24;98566.88;5052479;28;8868;-82
2021/12/09 02:33:45;;;;;;;;;1.00;1.00;;;;;5.09;77.05;98560.75;5052643;28;8940;-82
2021/12/09 02:36:13;;;;;;;;;2.60;2.60;;;;;5.06;77.53;98557.50;5051693;28;8843;-82
2021/12/09 02:38:44;;;;;;;;;1.00;1.00;;;;;5.02;77.70;98558.72;5049900;28;9481;-82
2021/12/09 02:41:16;;;;;;;;;1.00;1.00;;;;;4.98;77.78;98558.13;5051514;28;8847;-82
2021/12/09 02:43:44;;;;;;;;;1.00;1.00;;;;;4.95;77.62;98562.81;5052224;28;9410;-82
2021/12/09 02:46:11;;;;;;;;;4.00;3.60;;;;;4.92;77.62;98563.88;5052214;28;8843;-82
2021/12/09 02:48:39;;;;;;;;;0.00;0.00;;;;;4.87;77.81;98552.03;5052188;28;8846;-82
2021/12/09 02:51:08;;;;;;;;;3.00;1.00;;;;;4.80;77.67;98566.66;5051654;28;8906;-82
2021/12/09 02:53:35;;;;;;;;;3.20;3.00;;;;;4.71;78.50;98560.28;5052563;28;8972;-82
2021/12/09 02:56:03;;;;;;;;;3.40;3.40;;;;;4.65;78.43;98566.03;5051487;28;8846;-83
2021/12/09 02:58:31;;;;;;;;;3.40;3.20;;;;;4.62;78.33;98566.28;5049630;28;8846;-82
2021/12/09 03:01:00;;;;;;;;;3.00;3.00;;;;;4.58;78.52;98561.38;5046688;28;8889;-82
2021/12/09 03:03:32;;;;;;;;;2.20;1.00;;;;;4.51;78.98;98562.81;5049491;28;8867;-81
2021/12/09 03:06:00;;;;;;;;;1.00;1.00;;;;;4.45;78.42;98563.28;5049871;28;8857;-81
2021/12/09 03:08:36;;;;;;;;;1.00;1.00;;;;;4.37;78.59;98566.50;5048971;28;8969;-82
2021/12/09 03:11:05;;;;;;;;;3.60;3.60;;;;;4.30;78.33;98562.66;5050292;28;8886;-80
2021/12/09 03:13:33;;;;;;;;;1.40;1.40;;;;;4.23;79.06;98569.34;5048898;28;8890;-80
2021/12/09 03:16:01;;;;;;;;;1.00;1.00;;;;;4.19;79.36;98573.16;5050411;28;8850;-79
2021/12/09 03:18:31;;;;;;;;;1.80;1.80;;;;;4.11;78.80;98566.81;5049791;28;8884;-80
2021/12/09 03:20:59;;;;;;;;;0.60;0.60;;;;;4.03;79.06;98569.19;5049370;28;8846;-79
2021/12/09 03:23:28;;;;;;;;;0.00;0.00;;;;;3.93;79.28;98568.19;5050015;28;8842;-79
2021/12/09 03:25:57;;;;;;;;;3.00;3.00;;;;;3.85;79.37;98562.66;5051320;28;9133;-81
2021/12/09 03:28:24;;;;;;;;;1.80;1.80;;;;;3.77;79.89;98569.47;5051117;28;8967;-82
2021/12/09 03:30:52;;;;;;;;;1.00;0.00;;;;;3.68;80.10;98565.69;5052243;28;8850;-81
2021/12/09 03:33:20;;;;;;;;;1.40;1.00;;;;;3.62;79.88;98570.59;5051049;28;8904;-81
2021/12/09 03:35:47;;;;;;;;;0.80;0.00;;;;;3.55;80.15;98570.19;5050958;28;8917;-81
2021/12/09 03:38:15;;;;;;;;;3.80;3.20;;;;;3.49;79.88;98573.25;5051194;28;8940;-81
2021/12/09 03:40:43;;;;;;;;;3.20;3.20;;;;;3.41;80.52;98564.25;5050480;28;8850;-82
2021/12/09 03:43:11;;;;;;;;;1.00;1.00;;;;;3.33;80.57;98562.19;5049905;28;8852;-81
2021/12/09 03:45:38;;;;;;;;;1.00;1.00;;;;;3.28;80.72;98559.06;5051991;28;8893;-81
2021/12/09 03:48:06;;;;;;;;;1.00;1.00;;;;;3.23;80.39;98552.44;5051613;28;8955;-80
2021/12/09 03:50:34;;;;;;;;;0.00;0.00;;;;;3.18;80.64;98560.66;5050067;28;9614;-80
2021/12/09 03:53:02;;;;;;;;;1.80;1.00;;;;;3.11;80.86;98569.09;5050386;28;8843;-81
2021/12/09 03:55:42;;;;;;;;;0.00;0.00;;;;;3.02;80.64;98570.59;5050804;28;8850;-81
2021/12/09 03:58:10;;;;;;;;;1.20;0.80;;;;;2.96;80.85;98571.03;5050021;28;8870;-81
2021/12/09 04:00:38;;;;;;;;;3.00;2.20;;;;;2.94;80.88;98582.63;5050456;28;8846;-81
2021/12/09 04:03:05;;;;;;;;;1.00;1.00;;;;;2.92;80.74;98582.72;5050608;28;8878;-81
2021/12/09 04:05:33;;;;;;;;;1.60;0.60;;;;;2.93;80.77;98583.53;5051215;28;8969;-82
2021/12/09 04:08:03;;;;;;;;;1.80;1.80;;;;;2.89;81.06;98585.53;5050082;28;8947;-82
2021/12/09 04:10:31;;;;;;;;;1.40;1.40;;;;;2.85;80.91;98572.72;5050756;28;8932;-81
2021/12/09 04:12:59;;;;;;;;;3.00;3.00;;;;;2.79;81.29;98567.94;5050825;28;9911;-81
2021/12/09 04:15:26;;;;;;;;;6.00;3.20;;;;;2.74;81.32;98575.28;5051050;28;8851;-81
2021/12/09 04:17:54;;;;;;;;;2.60;2.60;;;;;2.68;81.53;98578.34;5051605;28;8944;-80
2021/12/09 04:20:22;;;;;;;;;1.00;0.60;;;;;2.64;81.13;98580.34;5050244;28;8924;-80
2021/12/09 04:22:50;;;;;;;;;2.60;2.60;;;;;2.63;81.59;98588.31;5051238;28;8846;-81
2021/12/09 04:25:18;;;;;;;;;1.00;1.00;;;;;2.63;81.83;98583.06;5049666;28;8862;-80
2021/12/09 04:27:45;;;;;;;;;1.00;1.00;;;;;2.61;81.39;98579.69;5050664;28;8882;-81
2021/12/09 04:30:13;;;;;;;;;1.00;1.00;;;;;2.60;81.45;98584.13;5050716;28;8889;-81
2021/12/09 04:32:41;;;;;;;;;1.80;1.80;;;;;2.57;81.19;98586.97;5049998;28;8850;-81
2021/12/09 04:35:09;;;;;;;;;1.40;1.40;;;;;2.54;81.33;98584.56;5050291;28;8973;-81
2021/12/09 04:37:36;;;;;;;;;4.80;3.80;;;;;2.51;81.08;98583.94;5050163;28;8834;-81
2021/12/09 04:40:04;;;;;;;;;3.00;1.00;;;;;2.46;81.62;98586.88;5049819;28;8842;-81
2021/12/09 04:42:32;;;;;;;;;3.00;2.20;;;;;2.40;81.44;98589.91;5050873;28;8850;-81
2021/12/09 04:45:00;;;;;;;;;1.80;1.00;;;;;2.38;81.06;98593.59;5051216;28;8850;-81
2021/12/09 04:47:27;;;;;;;;;1.00;1.00;;;;;2.37;81.74;98594.53;5049428;28;8872;-81
2021/12/09 04:49:55;;;;;;;;;1.20;1.20;;;;;2.39;81.08;98601.38;5049744;28;8980;-81
2021/12/09 04:52:23;;;;;;;;;3.00;1.40;;;;;2.41;81.32;98596.03;5049910;28;8877;-81
2021/12/09 04:54:51;;;;;;;;;1.00;1.00;;;;;2.41;81.24;98601.28;5049683;28;8857;-81
2021/12/09 04:57:19;;;;;;;;;3.00;1.00;;;;;2.41;80.82;98599.47;5049359;28;8846;-82
2021/12/09 04:59:48;;;;;;;;;2.60;2.60;;;;;2.41;81.21;98601.28;5050211;28;8870;-81
2021/12/09 05:02:25;;;;;;;;;0.60;0.00;;;;;2.40;81.50;98603.03;5050028;28;8834;-82
2021/12/09 05:04:53;;;;;;;;;1.40;1.00;;;;;2.41;81.14;98601.28;5050319;28;8854;-81
2021/12/09 05:07:20;;;;;;;;;0.60;0.60;;;;;2.43;81.17;98597.56;5049801;28;9081;-79
2021/12/09 05:09:50;;;;;;;;;2.20;2.20;;;;;2.47;80.87;98603.44;5046177;28;8856;-79
2021/12/09 05:12:18;;;;;;;;;1.00;0.80;;;;;2.46;81.04;98607.88;5049003;28;8822;-81
2021/12/09 05:14:47;;;;;;;;;0.80;0.80;;;;;2.48;81.00;98610.38;5049758;28;8894;-81
2021/12/09 05:17:15;;;;;;;;;1.00;1.00;;;;;2.47;80.84;98609.56;5049161;28;9531;-81
2021/12/09 05:19:42;;;;;;;;;3.40;3.00;;;;;2.47;81.22;98608.72;5049440;28;8854;-80
2021/12/09 05:22:10;;;;;;;;;1.00;1.00;;;;;2.45;80.91;98600.94;5048142;28;8835;-80
2021/12/09 05:24:38;;;;;;;;;0.00;0.00;;;;;2.43;80.47;98612.50;5047724;28;9769;-82
2021/12/09 05:27:06;;;;;;;;;1.00;1.00;;;;;2.41;81.50;98617.03;5049048;28;8900;-82
2021/12/09 05:29:38;;;;;;;;;3.60;3.60;;;;;2.36;81.24;98619.94;5048147;28;9144;-82
2021/12/09 05:32:10;;;;;;;;;1.00;1.00;;;;;2.34;81.08;98627.09;5049110;28;8854;-82
2021/12/09 05:34:38;;;;;;;;;2.20;2.20;;;;;2.36;81.55;98625.19;5048431;28;8981;-82
2021/12/09 05:37:06;;;;;;;;;3.00;2.20;;;;;2.40;81.18;98625.81;5047022;28;8847;-82
2021/12/09 05:39:33;;;;;;;;;0.20;0.20;;;;;2.42;81.01;98632.66;5048875;28;8858;-81
2021/12/09 05:42:01;;;;;;;;;3.20;3.00;;;;;2.45;80.91;98634.25;5047774;28;8865;-82
2021/12/09 05:44:29;;;;;;;;;2.60;1.00;;;;;2.45;80.84;98626.38;5049222;28;8874;-82
2021/12/09 05:46:57;;;;;;;;;1.00;1.00;;;;;2.45;81.68;98635.09;5048609;28;9517;-82
2021/12/09 05:49:24;;;;;;;;;1.00;1.00;;;;;2.43;81.22;98633.50;5051879;28;8850;-82
2021/12/09 05:51:53;;;;;;;;;3.00;2.60;;;;;2.39;81.52;98638.13;5051942;28;8862;-82
2021/12/09 05:54:20;;;;;;;;;3.60;1.00;;;;;2.36;81.42;98637.50;5051174;28;8860;-82
2021/12/09 05:56:49;;;;;;;;;2.20;2.20;;;;;2.32;80.93;98642.13;5050705;28;8850;-82
2021/12/09 05:59:17;;;;;;;;;4.00;3.00;;;;;2.29;81.43;98647.56;5049339;28;8870;-79
2021/12/09 06:01:45;;;;;;;;;0.00;0.00;;;;;2.23;81.11;98645.38;5050884;28;8858;-79
2021/12/09 06:04:12;;;;;;;;;3.60;3.00;;;;;2.14;81.43;98653.81;5050489;28;8834;-79
2021/12/09 06:06:40;;;;;;;;;0.80;0.80;;;;;2.08;80.90;98663.91;5051532;28;9575;-79
2021/12/09 06:09:07;;;;;;;;;1.00;1.00;;;;;2.02;81.37;98675.66;5049795;28;8901;-79
2021/12/09 06:11:35;;;;;;;;;3.00;2.60;;;;;1.98;81.44;98670.72;5049881;28;8850;-79
2021/12/09 06:14:03;;;;;;;;;2.20;2.20;;;;;1.90;82.01;98676.44;5050272;28;8874;-79
2021/12/09 06:16:31;;;;;;;;;3.40;3.40;;;;;1.83;81.90;98669.91;5050461;28;8858;-79
2021/12/09 06:18:59;;;;;;;;;3.60;3.40;;;;;1.77;81.65;98674.72;5048037;28;8861;-79
2021/12/09 06:21:27;;;;;;;;;1.40;1.40;;;;;1.69;82.26;98672.63;5048556;28;8896;-80
2021/12/09 06:23:55;;;;;;;;;6.20;6.00;;;;;1.64;82.19;98671.19;5049701;28;8860;-79
2021/12/09 06:26:22;;;;;;;;;4.00;3.40;;;;;1.59;81.70;98670.66;5049785;28;8841;-79
2021/12/09 06:28:51;;;;;;;;;3.00;2.60;;;;;1.55;82.63;98664.78;5049294;28;8877;-79
2021/12/09 06:31:19;;;;;;;;;3.80;3.00;;;;;1.52;82.36;98675.44;5048152;28;8868;-79
2021/12/09 06:33:47;;;;;;;;;1.00;1.00;;;;;1.51;82.59;98678.19;5046892;28;8884;-79
2021/12/09 06:36:15;;;;;;;;;3.00;3.00;;;;;1.47;82.16;98676.69;5047599;28;8826;-79
2021/12/09 06:38:43;;;;;;;;;2.20;2.20;;;;;1.45;82.36;98678.56;5047587;28;8976;-79
2021/12/09 06:41:11;;;;;;;;;3.40;3.20;;;;;1.43;82.24;98686.53;5044447;28;8845;-78
2021/12/09 06:43:40;;;;;;;;;1.00;1.00;;;;;1.45;82.26;98694.31;5045461;28;9574;-78
2021/12/09 06:46:07;;;;;;;;;1.40;1.40;;;;;1.47;82.49;98684.56;5045590;28;8878;-78
2021/12/09 06:48:36;;;;;;;;;0.00;0.00;;;;;1.50;82.15;98685.19;5044345;28;8850;-79
2021/12/09 06:51:05;;;;;;;;;4.00;3.40;;;;;1.52;82.09;98685.94;5045532;28;9060;-79
2021/12/09 06:53:33;;;;;;;;;3.00;3.00;;;;;1.55;82.50;98677.91;5045508;28;8848;-79
2021/12/09 06:56:01;;;;;;;;;3.60;3.20;;;;;1.63;82.21;98687.88;5044352;28;8862;-79
2021/12/09 06:58:28;;;;;;;;;0.00;0.00;;;;;1.70;82.29;98687.41;5041182;28;8850;-79
2021/12/09 07:00:56;;;;;;;;;4.40;4.40;;;;;1.79;81.60;98684.19;5041965;28;8870;-78
2021/12/09 07:03:25;;;;;;;;;3.00;3.00;;;;;1.85;82.15;98678.53;5042936;28;8862;-78
2021/12/09 07:05:53;;;;;;;;;1.80;1.80;;;;;1.87;81.62;98687.16;5042299;28;9746;-79
2021/12/09 07:08:20;;;;;;;;;1.00;1.00;;;;;1.86;81.87;98685.47;5044588;28;8862;-78
2021/12/09 07:10:48;;;;;;;;;4.40;3.80;;;;;1.83;82.17;98682.22;5044247;28;8927;-79
2021/12/09 07:13:19;;;;;;;;;1.00;1.00;;;;;1.76;81.52;98694.84;5042378;28;8870;-79
2021/12/09 07:15:46;;;;;;;;;3.00;1.00;;;;;1.72;81.49;98697.78;5042507;28;9713;-78
2021/12/09 07:18:15;;;;;;;;;1.00;1.00;;;;;1.74;82.06;98696.75;5043280;28;9001;-79
2021/12/09 07:20:43;;;;;;;;;3.00;3.00;;;;;1.78;81.66;98700.88;5041516;28;8979;-78
2021/12/09 07:23:10;;;;;;;;;3.20;2.60;;;;;1.83;82.00;98696.16;5042001;28;8944;-79
2021/12/09 07:25:39;;;;;;;;;5.60;5.20;;;;;1.89;81.29;98703.63;5042419;28;8865;-78
2021/12/09 07:28:06;;;;;;;;;2.20;2.20;;;;;1.94;81.77;98703.34;5040585;28;9017;-79
2021/12/09 07:30:34;;;;;;;;;3.20;2.60;;;;;1.97;81.44;98701.34;5041611;28;8838;-79
2021/12/09 07:33:05;;;;;;;;;4.00;3.80;;;;;1.99;81.94;98691.59;5039590;28;8859;-79
2021/12/09 07:35:33;;;;;;;;;4.20;4.20;;;;;2.00;81.63;98688.03;5041333;28;8851;-79
2021/12/09 07:38:00;;;;;;;;;1.40;1.00;;;;;2.03;81.19;98693.09;5039422;28;8958;-79
2021/12/09 07:40:28;;;;;;;;;3.80;3.80;;;;;2.06;81.13;98692.88;5042068;28;8854;-79
2021/12/09 07:42:56;;;;;;;;;3.20;3.20;;;;;2.06;81.28;98690.25;5039335;28;8870;-78
2021/12/09 07:45:24;;;;;;;;;0.20;0.20;;;;;2.07;81.56;98689.34;5041477;28;9629;-78
2021/12/09 07:47:52;;;;;;;;;3.40;3.00;;;;;2.09;81.21;98687.44;5041262;28;8884;-79
2021/12/09 07:50:20;;;;;;;;;1.40;1.40;;;;;2.14;81.50;98687.97;5040852;28;8866;-79
2021/12/09 07:52:48;;;;;;;;;0.00;0.00;;;;;2.19;81.09;98678.00;5042527;28;9242;-79
2021/12/09 07:55:16;;;;;;;;;0.00;0.00;;;;;2.25;80.93;98674.97;5037282;28;8858;-79
2021/12/09 07:57:44;;;;;;;;;1.00;1.00;;;;;2.32;80.86;98683.28;5039664;28;8923;-79
2021/12/09 08:00:12;;;;;;;;;1.00;1.00;;;;;2.35;80.93;98678.66;5039006;28;9012;-79
2021/12/09 08:02:40;;;;;;;;;5.80;4.40;;;;;2.41;81.24;98677.44;5037988;28;9146;-79
2021/12/09 08:05:08;;;;;;;;;1.80;1.80;;;;;2.47;81.25;98683.09;5039886;28;9281;-79
2021/12/09 08:07:37;;;;;;;;;3.60;3.40;;;;;2.55;81.25;98677.31;5039678;28;8862;-79
2021/12/09 08:10:05;;;;;;;;;0.20;0.20;;;;;2.64;80.76;98680.16;5038424;28;8859;-79
2021/12/09 08:12:33;;;;;;;;;4.40;2.60;;;;;2.70;80.73;98682.38;5038970;28;8855;-80
2021/12/09 08:15:20;;;;;;;;;3.00;3.00;;;;;2.77;80.29;98695.94;5038922;28;8893;-79
2021/12/09 08:18:02;;;;;;;;;1.40;1.40;;;;;2.81;80.79;98698.25;5039871;28;8830;-79
2021/12/09 08:20:29;;;;;;;;;2.60;2.60;;;;;2.82;81.16;98704.34;5039741;28;8880;-78
2021/12/09 08:22:58;;;;;;;;;5.60;3.20;;;;;2.85;80.72;98709.41;5037246;28;8885;-79
2021/12/09 08:25:26;;;;;;;;;5.60;4.00;;;;;2.88;80.63;98728.44;5038526;28;8893;-79
2021/12/09 08:27:54;;;;;;;;;1.00;1.00;;;;;2.91;80.67;98719.50;5036737;28;9100;-79
2021/12/09 08:30:25;;;;;;;;;1.40;1.40;;;;;2.93;80.52;98725.47;5034025;28;8870;-79
2021/12/09 08:33:12;;;;;;;;;0.00;0.00;;;;;2.96;80.66;98736.63;5034824;28;9007;-79
2021/12/09 08:35:40;;;;;;;;;1.80;1.80;;;;;2.97;80.47;98724.34;5036892;28;8862;-79
2021/12/09 08:38:08;;;;;;;;;1.00;1.00;;;;;3.00;80.78;98732.00;5035829;28;8838;-79
2021/12/09 08:40:36;;;;;;;;;0.00;0.00;;;;;3.05;80.01;98738.66;5035445;28;8866;-79
2021/12/09 08:43:05;;;;;;;;;1.80;1.80;;;;;3.08;80.16;98733.19;5042770;28;9240;-79
2021/12/09 08:45:33;;;;;;;;;3.00;1.40;;;;;3.15;80.17;98723.06;5044422;28;8908;-79
2021/12/09 08:48:01;;;;;;;;;1.00;1.00;;;;;3.23;80.40;98733.88;5043946;28;8842;-79
2021/12/09 08:50:33;;;;;;;;;4.80;3.60;;;;;3.28;80.35;98721.28;5041067;28;8849;-79
2021/12/09 08:53:00;;;;;;;;;1.40;1.00;;;;;3.35;80.16;98723.38;5039625;28;8880;-79
2021/12/09 08:55:29;;;;;;;;;4.00;3.40;;;;;3.40;79.39;98726.50;5040514;28;9148;-79
2021/12/09 08:57:57;;;;;;;;;4.40;3.60;;;;;3.45;79.97;98724.41;5039038;28;8850;-79
2021/12/09 09:00:26;;;;;;;;;1.00;1.00;;;;;3.50;79.39;98730.19;5038771;28;8854;-79
2021/12/09 09:02:57;;;;;;;;;1.00;1.00;;;;;3.58;79.68;98732.28;5040168;28;8977;-80
2021/12/09 09:05:25;;;;;;;;;3.00;3.00;;;;;3.65;79.50;98730.88;5039957;28;8972;-80
2021/12/09 09:07:53;;;;;;;;;1.00;1.00;;;;;3.71;79.23;98727.81;5039158;28;9935;-79
2021/12/09 09:10:21;;;;;;;;;3.00;3.00;;;;;3.78;79.12;98731.69;5038223;28;9590;-79
2021/12/09 09:12:49;;;;;;;;;1.00;0.80;;;;;3.85;78.97;98726.72;5040256;28;8874;-79
2021/12/09 09:15:16;;;;;;;;;3.20;3.20;;;;;3.93;79.40;98739.31;5040344;28;8862;-79
2021/12/09 09:17:44;;;;;;;;;1.40;1.40;;;;;4.02;78.88;98736.00;5035507;28;8865;-79
2021/12/09 09:20:16;;;;;;;;;1.80;0.80;;;;;4.11;78.41;98732.75;5039792;28;8854;-79
2021/12/09 09:22:44;;;;;;;;;1.00;1.00;;;;;4.20;78.87;98743.41;5040104;28;9004;-80
2021/12/09 09:25:14;;;;;;;;;1.00;1.00;;;;;4.31;78.18;98740.00;5038445;28;8854;-79
2021/12/09 09:27:43;;;;;;;;;2.20;2.20;;;;;4.38;78.23;98742.09;5040502;28;8988;-80
2021/12/09 09:30:14;;;;;;;;;1.40;1.00;;;;;4.49;78.14;98743.94;5036943;28;8859;-80
2021/12/09 09:32:41;;;;;;;;;4.00;3.00;;;;;4.59;78.03;98740.50;5039905;28;8884;-80
2021/12/09 09:35:09;;;;;;;;;3.60;1.00;;;;;4.70;77.42;98747.56;5042802;28;8870;-79
2021/12/09 09:37:37;;;;;;;;;1.00;1.00;;;;;4.80;77.87;98740.69;5038761;28;8923;-79
2021/12/09 09:40:05;;;;;;;;;1.40;1.40;;;;;4.91;77.75;98743.31;5036282;28;9520;-80
2021/12/09 09:42:56;;;;;;;;;1.40;1.00;;;;;5.06;77.21;98737.75;5037075;28;8933;-79
2021/12/09 09:45:23;;;;;;;;;1.00;1.00;;;;;5.34;76.79;98741.72;5038517;28;8989;-79
2021/12/09 09:47:51;;;;;;;;;3.60;3.00;;;;;5.65;76.46;98738.34;5039258;28;8858;-79
2021/12/09 09:50:20;;;;;;;;;2.40;2.20;;;;;6.03;75.21;98729.09;5036703;28;9008;-79
2021/12/09 09:52:47;;;;;;;;;3.60;3.60;;;;;6.54;74.00;98729.28;5036784;28;9501;-80
2021/12/09 09:55:20;;;;;;;;;3.60;2.20;;;;;7.00;72.87;98716.53;5038378;28;8858;-79
2021/12/09 09:57:49;;;;;;;;;1.40;1.40;;;;;7.47;71.96;98705.34;5038509;28;8846;-80
2021/12/09 10:00:16;;;;;;;;;2.80;2.20;;;;;7.81;71.20;98705.75;5032556;28;9247;-79
2021/12/09 10:02:51;;;;;;;;;3.60;3.60;;;;;7.99;71.24;98704.13;5034904;28;8892;-81
2021/12/09 10:05:22;;;;;;;;;4.00;4.00;;;;;8.21;70.92;98700.44;5038545;28;9601;-81
2021/12/09 10:07:50;;;;;;;;;4.00;3.60;;;;;8.58;69.95;98704.09;5035474;28;9119;-80
2021/12/09 10:10:17;;;;;;;;;1.80;1.80;;;;;8.94;69.24;98692.72;5035704;28;8892;-80
2021/12/09 10:12:45;;;;;;;;;1.80;1.80;;;;;9.40;68.40;98698.03;5036031;28;8866;-80
2021/12/09 10:15:13;;;;;;;;;3.25;3.00;;;;;9.88;67.59;98688.88;5039009;28;8896;-79
2021/12/09 10:17:41;;;;;;;;;3.50;3.50;;;;;9.95;67.94;98681.97;5035144;28;8876;-80
2021/12/09 10:20:09;;;;;;;;;1.50;1.50;;;;;9.76;67.98;98691.88;5038938;28;8855;-79
2021/12/09 10:22:37;;;;;;;;;1.50;1.50;;;;;9.48;69.03;98688.38;5037203;28;8866;-81
2021/12/09 10:25:04;;;;;;;;;2.50;2.50;;;;;9.40;69.26;98695.38;5037309;28;8988;-79
2021/12/09 10:27:34;;;;;;;;;1.00;1.00;;;;;9.43;69.31;98693.28;5038544;28;9802;-80
2021/12/09 10:30:03;;;;;;;;;2.50;1.00;;;;;8.99;70.04;98695.78;5036220;28;8993;-81
2021/12/09 10:32:33;;;;;;;;;1.00;1.00;;;;;8.46;71.01;98698.09;5036561;28;8949;-81
2021/12/09 10:35:01;;;;;;;;;4.00;1.00;;;;;7.95;71.92;98702.72;5038183;28;8863;-80
2021/12/09 10:37:29;;;;;;;;;2.50;2.50;;;;;7.60;72.55;98712.13;5034712;28;8981;-82
2021/12/09 10:39:56;;;;;;;;;0.75;0.75;;;;;7.30;73.45;98703.31;5041251;28;8996;-80
2021/12/09 10:42:24;;;;;;;;;1.50;1.50;;;;;7.01;73.84;98697.03;5041045;28;8973;-80
2021/12/09 10:44:52;;;;;;;;;1.80;1.80;;;;;6.81;74.12;98692.59;5039970;28;8858;-79
2021/12/09 10:47:34;;;;;;;;;1.40;0.80;;;;;6.56;74.63;98685.03;5038812;28;8863;-80
2021/12/09 10:50:15;;;;;;;;;2.60;1.80;;;;;6.39;74.70;98688.25;5039865;28;8866;-80
2021/12/09 10:52:43;;;;;;;;;0.80;0.40;;;;;6.29;74.61;98687.34;5039646;28;9404;-79
2021/12/09 10:55:11;;;;;;;;;0.60;0.60;;;;;6.16;74.82;98691.94;5038048;28;8849;-80
2021/12/09 10:57:39;;;;;;;;;3.40;3.40;;;;;6.04;75.58;98685.00;5041765;28;9489;-80
2021/12/09 11:00:07;;;;;;;;;0.60;0.60;;;;;5.98;75.19;98693.41;5038720;28;9195;-80
2021/12/09 11:02:34;;;;;;;;;4.00;4.00;;;;;5.93;75.40;98691.16;5036467;28;9136;-80
2021/12/09 11:05:02;;;;;;;;;3.00;1.00;;;;;5.87;74.78;98688.19;5037540;28;9267;-80
2021/12/09 11:07:31;;;;;;;;;3.60;3.00;;;;;5.79;75.17;98698.50;5038277;28;8881;-80
2021/12/09 11:09:59;;;;;;;;;4.20;3.40;;;;;5.73;75.26;98693.69;5039385;28;8884;-81
2021/12/09 11:12:28;;;;;;;;;1.80;1.80;;;;;5.69;75.36;98697.56;5036121;28;8854;-80
2021/12/09 11:15:01;;;;;;;;;2.60;2.20;;;;;5.70;75.47;98699.22;5038967;28;8866;-81
2021/12/09 11:17:28;;;;;;;;;3.40;2.60;;;;;5.75;75.15;98699.69;5037458;28;9270;-79
2021/12/09 11:19:58;;;;;;;;;2.20;2.20;;;;;5.76;74.79;98688.19;5041840;28;8880;-80
2021/12/09 11:22:26;;;;;;;;;2.20;2.20;;;;;5.78;75.19;98694.19;5036448;28;8885;-80
2021/12/09 11:24:59;;;;;;;;;1.80;1.80;;;;;5.78;75.43;98692.34;5039453;28;8862;-80
2021/12/09 11:27:29;;;;;;;;;1.80;1.80;;;;;5.78;75.07;98696.81;5037678;28;8924;-79
2021/12/09 11:30:07;;;;;;;;;0.80;0.80;;;;;5.77;75.39;98692.50;5037923;28;8878;-80
2021/12/09 11:32:41;;;;;;;;;3.00;3.00;;;;;5.78;75.22;98680.97;5037234;28;8864;-79
2021/12/09 11:35:13;;;;;;;;;3.80;3.80;;;;;5.82;75.20;98692.97;5037968;28;8862;-80
2021/12/09 11:37:54;;;;;;;;;3.80;3.80;;;;;5.83;74.66;98689.38;5035183;28;9532;-80
2021/12/09 11:40:29;;;;;;;;;1.80;1.80;;;;;5.86;75.17;98687.31;5037520;28;8845;-81
2021/12/09 11:42:59;;;;;;;;;3.60;3.00;;;;;5.87;74.96;98688.19;5037109;28;8973;-79
2021/12/09 11:45:27;;;;;;;;;1.00;1.00;;;;;5.82;74.93;98678.00;5034521;28;8858;-79
2021/12/09 11:47:55;;;;;;;;;1.00;1.00;;;;;5.78;75.07;98686.25;5033964;28;9101;-80
2021/12/09 11:50:23;;;;;;;;;3.00;2.20;;;;;5.71;74.59;98687.72;5035017;28;8861;-79
2021/12/09 11:52:52;;;;;;;;;2.60;2.60;;;;;5.64;75.31;98683.88;5036659;28;9092;-80
2021/12/09 11:55:21;;;;;;;;;3.20;3.00;;;;;5.62;75.31;98688.44;5038994;28;8876;-80
2021/12/09 11:57:54;;;;;;;;;4.00;2.60;;;;;5.60;75.05;98687.72;5039012;28;8851;-79